메인 페이지
METAR-TAF:

METAR-TAF

공항 :

Eppley Airfield

오마하, 네브래스카, 미국

위도: 41-18-37N, 경도: 095-53-57W, 고도: 299m

현재 날씨관측

예보는 45분 전, 18:52시(UTC)에 발표되었습니다.
북북서21kt, 순간 최대 풍속 33kt
온도 -7°C
습도 62%
기압 1014 hPa
시정: 16.1km
고도 2200ft 상공 구름 보통

METAR: KOMA 091852Z 33021G33KT 10SM SCT022 M07/M13 A2994 RMK AO2 PK WND 34033/1852 SLP151 T10721128

시각: 13:37 (19:37 UTC)

예보

예보는 24분 전, 19:13시(UTC)에 발표되었습니다.
예보 대상 시간: 09일 19시부터 10일 18시까지 (UTC)
북북서21kt, 순간 최대 풍속 33kt
시정: 10km
맑음
09일 2100시부터 (UTC)
북북서14kt
시정: 10km
고도 15000ft 상공 구름 조금
10일 0200시부터 (UTC)
여러 방향의 바람 5kt
시정: 10km
맑음
10일 1000시부터 (UTC)
북서5kt
시정: 10km
고도 9000ft 상공 구름 보통

TAF: KOMA 091913Z 0919/1018 33021G33KT P6SM SKC FM092100 33014KT P6SM FEW150 FM100200 VRB05KT P6SM SKC FM101000 31005KT P6SM SCT090

4,000개 이상의 공항 관측 자료 및 예보 (METAR 및 TAF 보고).

지도상에서 검색 가능한 기상관측소가 노란 점과 빨간 점으로 표시되어 있습니다.

기상관측소 명을 보려면 표시 위로 마우스를 이동하세요.

날씨 관측과 예보를 보려면 클릭하세요.

지도 변경 : 확대하려면 엑스 표시가 있는 녹색 버튼, 축소하려면 빼기 표시가 있는 녹색 버튼, 다음 페이지의 지도를 보려면 녹색 화살표를 클릭하세요.


METAR-TAF: